Time;durP1;ratioP1;P1;durP2;ratioP2;P2;SDS_P1;SDS_P2;PMS_P1;PMS_P2;Temp;Humidity;BMP_temperature;BMP_pressure;BME280_temperature;BME280_humidity;BME280_pressure;Samples;Min_cycle;Max_cycle;Signal;HPM_P1;HPM_P2
2022/11/03 00:00:07;;;;;;;10.15;2.40;;;11.40;99.90;;;;;;5071378;28;20037;-74
2022/11/03 00:02:33;;;;;;;13.68;3.03;;;11.30;99.90;;;;;;5071636;28;20506;-74
2022/11/03 00:06:03;;;;;;;11.80;2.30;;;11.30;99.90;;;;;;5072764;28;20025;-74
2022/11/03 00:07:44;;;;;;;15.48;3.38;;;11.30;99.90;;;;;;5071410;28;20020;-74
2022/11/03 00:10:09;;;;;;;15.05;2.95;;;11.40;99.90;;;;;;5053025;28;20087;-74
2022/11/03 00:12:35;;;;;;;10.05;2.70;;;11.40;99.90;;;;;;5062908;28;20033;-75
2022/11/03 00:15:00;;;;;;;14.00;3.75;;;11.30;99.90;;;;;;5071381;28;20035;-75
2022/11/03 00:17:26;;;;;;;12.85;2.63;;;11.40;99.90;;;;;;5071827;28;20021;-75
2022/11/03 00:19:51;;;;;;;19.75;3.10;;;11.30;99.90;;;;;;5071198;28;20554;-75
2022/11/03 00:22:17;;;;;;;13.25;2.15;;;11.30;99.90;;;;;;5072189;28;20028;-75
2022/11/03 00:24:44;;;;;;;13.40;2.85;;;11.30;99.90;;;;;;5073508;28;20025;-77
2022/11/03 00:27:10;;;;;;;8.40;2.72;;;11.30;99.90;;;;;;5077360;28;20580;-75
2022/11/03 00:29:36;;;;;;;15.35;3.08;;;11.30;99.90;;;;;;5075870;28;20036;-75
2022/11/03 00:32:01;;;;;;;12.05;2.70;;;11.30;99.90;;;;;;5076367;28;20534;-74
2022/11/03 00:34:29;;;;;;;13.13;2.47;;;11.20;99.90;;;;;;5075157;28;20016;-74
2022/11/03 00:36:55;;;;;;;9.93;2.58;;;11.20;99.90;;;;;;5075741;28;20036;-74
2022/11/03 00:39:20;;;;;;;13.20;2.55;;;11.20;99.90;;;;;;5075626;28;20029;-74
2022/11/03 00:41:46;;;;;;;14.77;2.88;;;11.20;99.90;;;;;;5075634;28;20028;-75
2022/11/03 00:44:12;;;;;;;15.88;3.47;;;11.20;99.90;;;;;;5075511;28;20028;-74
2022/11/03 00:46:37;;;;;;;23.00;3.80;;;11.20;99.90;;;;;;5075138;28;20362;-76
2022/11/03 00:49:04;;;;;;;12.13;2.83;;;11.20;99.90;;;;;;5074098;28;20036;-74
2022/11/03 00:51:30;;;;;;;16.70;3.03;;;11.20;99.90;;;;;;5075539;28;20029;-75
2022/11/03 00:53:58;;;;;;;15.25;2.60;;;11.20;99.90;;;;;;5079063;28;20027;-75
2022/11/03 00:56:33;;;;;;;10.73;2.63;;;11.20;99.90;;;;;;5080248;28;20634;-76
2022/11/03 00:59:00;;;;;;;12.68;2.60;;;11.20;99.90;;;;;;5081590;28;20028;-74
2022/11/03 01:01:29;;;;;;;14.02;2.33;;;11.20;99.90;;;;;;5080949;28;20021;-75
2022/11/03 01:06:49;;;;;;;14.15;3.05;;;11.20;99.90;;;;;;5078726;28;20093;-75
2022/11/03 01:09:32;;;;;;;11.07;3.08;;;11.20;99.90;;;;;;5066717;28;20487;-74
2022/11/03 01:12:08;;;;;;;10.90;2.83;;;11.10;99.90;;;;;;5078180;28;20020;-75
2022/11/03 01:14:51;;;;;;;14.30;3.08;;;11.10;99.90;;;;;;5063701;28;20399;-74
2022/11/03 01:17:23;;;;;;;11.35;2.67;;;11.10;99.90;;;;;;5056806;28;20021;-75
2022/11/03 01:19:49;;;;;;;7.88;2.08;;;11.10;99.90;;;;;;5060733;28;20064;-74
2022/11/03 01:22:15;;;;;;;15.65;2.75;;;11.10;99.90;;;;;;5080668;28;20017;-75
2022/11/03 01:24:42;;;;;;;12.93;2.50;;;11.10;99.90;;;;;;5065880;28;20075;-74
2022/11/03 01:27:09;;;;;;;14.98;2.97;;;11.10;99.90;;;;;;5075202;28;20052;-75
2022/11/03 01:29:35;;;;;;;17.88;2.95;;;11.10;99.90;;;;;;5074233;28;20021;-75
2022/11/03 01:32:00;;;;;;;10.48;2.50;;;11.10;99.90;;;;;;5062586;28;20389;-73
2022/11/03 01:34:29;;;;;;;13.10;2.67;;;11.00;99.90;;;;;;5071348;28;20047;-76
2022/11/03 01:36:55;;;;;;;12.98;2.28;;;11.10;99.90;;;;;;5073526;28;20044;-74
2022/11/03 01:39:20;;;;;;;14.07;2.78;;;11.10;99.90;;;;;;5073849;28;20028;-74
2022/11/03 01:41:48;;;;;;;15.68;2.60;;;11.00;99.90;;;;;;5074261;28;20028;-74
2022/11/03 01:44:23;;;;;;;11.57;3.00;;;10.90;99.90;;;;;;5073769;28;20097;-74
2022/11/03 01:47:16;;;;;;;9.35;2.17;;;10.90;99.90;;;;;;5074560;28;20175;-74
2022/11/03 01:49:57;;;;;;;10.93;2.83;;;10.90;99.90;;;;;;5059670;28;20037;-74
2022/11/03 01:52:29;;;;;;;11.02;2.40;;;10.90;99.90;;;;;;5073604;28;20021;-75
2022/11/03 01:55:01;;;;;;;13.45;3.33;;;10.80;99.90;;;;;;5074679;28;20023;-75
2022/11/03 01:57:38;;;;;;;8.50;2.33;;;10.80;99.90;;;;;;5074209;28;20020;-75
2022/11/03 02:00:05;;;;;;;13.55;3.03;;;10.70;99.90;;;;;;5073466;28;20027;-75
2022/11/03 02:02:31;;;;;;;7.10;2.45;;;10.70;99.90;;;;;;5073792;28;20397;-75
2022/11/03 02:04:59;;;;;;;13.10;3.20;;;10.60;99.90;;;;;;5074224;28;20025;-75
2022/11/03 02:07:47;;;;;;;10.05;2.05;;;10.70;99.90;;;;;;5073154;28;20464;-75
2022/11/03 02:10:13;;;;;;;14.85;3.47;;;10.70;99.90;;;;;;5074586;28;20499;-74
2022/11/03 02:12:38;;;;;;;12.30;2.65;;;10.60;99.90;;;;;;5077621;28;20021;-78
2022/11/03 02:15:09;;;;;;;12.30;2.55;;;10.60;99.90;;;;;;5076055;28;20039;-75
2022/11/03 02:17:36;;;;;;;12.73;2.67;;;10.70;99.90;;;;;;5073595;28;20070;-75
2022/11/03 02:20:06;;;;;;;14.13;3.20;;;10.60;99.90;;;;;;5072923;28;20508;-75
2022/11/03 02:22:40;;;;;;;9.30;2.13;;;10.70;99.90;;;;;;5068139;28;20489;-75
2022/11/03 02:25:17;;;;;;;13.45;2.60;;;10.70;99.90;;;;;;5066955;28;20037;-74
2022/11/03 02:27:43;;;;;;;12.43;2.80;;;10.70;99.90;;;;;;5072798;28;20075;-75
2022/11/03 02:30:09;;;;;;;11.93;3.20;;;10.70;99.90;;;;;;5073388;28;20041;-76
2022/11/03 02:32:54;;;;;;;17.52;3.22;;;10.70;99.90;;;;;;5073364;28;20048;-75
2022/11/03 02:35:34;;;;;;;21.65;2.97;;;10.60;99.90;;;;;;5072741;28;20074;-76
2022/11/03 02:38:04;;;;;;;13.82;2.90;;;10.70;99.90;;;;;;5073832;28;20448;-74
2022/11/03 02:40:37;;;;;;;16.02;2.97;;;10.60;99.90;;;;;;5072839;28;20501;-73
2022/11/03 02:43:04;;;;;;;13.20;2.92;;;10.80;99.90;;;;;;5073929;28;20039;-76
2022/11/03 02:45:30;;;;;;;15.80;3.00;;;10.90;99.90;;;;;;5073278;28;20618;-73
2022/11/03 02:47:58;;;;;;;14.18;2.80;;;10.90;99.90;;;;;;5073067;28;20081;-76
2022/11/03 02:50:30;;;;;;;10.73;2.42;;;10.90;99.90;;;;;;5072922;28;20418;-75
2022/11/03 02:52:56;;;;;;;11.90;2.60;;;10.90;99.90;;;;;;5072839;28;20020;-76
2022/11/03 02:55:36;;;;;;;8.82;2.20;;;11.00;99.90;;;;;;5072483;28;20035;-74
2022/11/03 02:58:27;;;;;;;13.13;2.70;;;10.90;99.90;;;;;;5072789;28;20027;-75
2022/11/03 03:01:13;;;;;;;17.40;2.78;;;11.00;99.90;;;;;;5073192;28;20078;-75
2022/11/03 03:03:50;;;;;;;13.85;2.55;;;11.00;99.90;;;;;;5060419;28;20357;-74
2022/11/03 03:06:42;;;;;;;12.18;3.00;;;11.00;99.90;;;;;;5072831;28;20032;-75
2022/11/03 03:09:14;;;;;;;12.75;2.63;;;11.00;99.90;;;;;;5066443;28;20044;-75
2022/11/03 03:11:42;;;;;;;10.70;2.78;;;11.00;99.90;;;;;;5077687;28;20051;-74
2022/11/03 03:14:44;;;;;;;13.27;2.83;;;11.10;99.90;;;;;;5072823;28;20069;-75
2022/11/03 03:17:14;;;;;;;14.15;2.85;;;11.20;99.90;;;;;;5061870;28;20045;-74
2022/11/03 03:19:51;;;;;;;12.05;2.97;;;11.30;99.90;;;;;;5072304;28;20107;-75
2022/11/03 03:22:32;;;;;;;19.08;2.67;;;11.30;99.90;;;;;;5056149;28;20025;-75
2022/11/03 03:25:06;;;;;;;11.70;2.50;;;11.30;99.90;;;;;;5063547;28;20016;-75
2022/11/03 03:27:34;;;;;;;10.68;2.88;;;11.30;99.90;;;;;;5071949;28;20048;-75
2022/11/03 03:30:09;;;;;;;11.02;3.08;;;11.40;99.90;;;;;;5071904;28;20120;-75
2022/11/03 03:32:42;;;;;;;12.07;2.80;;;11.30;99.90;;;;;;5054216;28;20013;-75
2022/11/03 03:35:12;;;;;;;10.65;2.60;;;11.30;99.90;;;;;;5072590;28;20545;-76
2022/11/03 03:37:43;;;;;;;18.20;3.35;;;11.30;99.90;;;;;;5072026;28;20033;-76
2022/11/03 03:40:13;;;;;;;7.90;2.30;;;12.10;99.90;;;;;;5072962;28;20119;-75
2022/11/03 03:42:42;;;;;;;8.40;2.80;;;11.30;99.90;;;;;;5072742;28;20074;-75
2022/11/03 03:45:09;;;;;;;16.08;3.67;;;11.30;99.90;;;;;;5072219;28;20024;-75
2022/11/03 03:47:35;;;;;;;11.75;2.58;;;11.30;99.90;;;;;;5072105;28;20021;-76
2022/11/03 03:50:01;;;;;;;13.35;2.92;;;11.30;99.90;;;;;;5072155;28;20055;-75
2022/11/03 03:52:28;;;;;;;17.23;3.13;;;11.30;99.90;;;;;;5071561;28;20105;-76
2022/11/03 03:54:54;;;;;;;14.95;3.45;;;11.30;99.90;;;;;;5072974;28;20029;-75
2022/11/03 03:57:23;;;;;;;8.95;2.70;;;11.30;99.90;;;;;;5072797;28;20025;-75
2022/11/03 03:59:49;;;;;;;9.50;2.30;;;11.30;99.90;;;;;;5072515;28;20047;-75
2022/11/03 04:02:15;;;;;;;12.23;2.92;;;11.30;99.90;;;;;;5076649;28;20481;-75
2022/11/03 04:04:44;;;;;;;21.33;4.88;;;11.30;99.90;;;;;;5075903;28;20064;-75
2022/11/03 04:09:53;;;;;;;9.05;2.67;;;11.30;99.90;;;;;;5075987;28;20460;-75
2022/11/03 04:23:18;;;;;;;11.00;2.40;;;11.40;99.90;;;;;;5076572;28;20052;-75
2022/11/03 04:25:53;;;;;;;10.60;2.67;;;11.40;99.90;;;;;;5076030;28;20110;-76
2022/11/03 04:28:19;;;;;;;8.70;2.28;;;11.30;99.90;;;;;;5076100;28;20166;-75
2022/11/03 04:30:44;;;;;;;13.65;3.30;;;11.30;99.90;;;;;;5075793;28;20477;-76
2022/11/03 04:33:17;;;;;;;13.50;2.85;;;11.30;99.90;;;;;;5075072;28;20044;-75
2022/11/03 04:35:43;;;;;;;15.65;3.50;;;11.30;99.90;;;;;;5075271;28;20033;-75
2022/11/03 04:38:25;;;;;;;8.32;2.75;;;11.30;99.90;;;;;;5075552;28;20029;-75
2022/11/03 04:40:56;;;;;;;11.43;2.17;;;11.20;99.90;;;;;;5074953;28;20074;-75
2022/11/03 04:43:31;;;;;;;17.40;2.90;;;11.20;99.90;;;;;;5075807;28;20067;-76
2022/11/03 04:45:57;;;;;;;10.10;2.50;;;11.20;99.90;;;;;;5075890;28;20020;-76
2022/11/03 04:48:24;;;;;;;11.68;2.75;;;11.30;99.90;;;;;;5075076;28;20023;-75
2022/11/03 04:50:53;;;;;;;7.93;2.50;;;11.30;99.90;;;;;;5075014;28;20491;-73
2022/11/03 04:53:20;;;;;;;20.35;3.67;;;11.40;99.90;;;;;;5075512;28;20043;-74
2022/11/03 04:55:49;;;;;;;11.00;3.15;;;11.40;99.90;;;;;;5074859;28;20033;-74
2022/11/03 04:58:25;;;;;;;10.55;2.13;;;11.40;99.90;;;;;;5075201;28;20031;-73
2022/11/03 05:00:52;;;;;;;11.25;2.75;;;11.50;99.90;;;;;;5081960;28;20199;-73
2022/11/03 05:03:45;;;;;;;17.13;3.03;;;11.50;99.90;;;;;;5077019;28;20023;-75
2022/11/03 05:06:13;;;;;;;12.63;2.60;;;11.60;99.90;;;;;;5072278;28;20040;-75
2022/11/03 05:08:40;;;;;;;14.07;2.75;;;11.60;99.90;;;;;;5074223;28;20024;-74
2022/11/03 05:11:18;;;;;;;13.27;3.00;;;11.60;99.90;;;;;;5073981;28;20090;-74
2022/11/03 05:13:43;;;;;;;10.25;2.78;;;11.60;99.90;;;;;;5074712;28;20548;-74
2022/11/03 05:16:09;;;;;;;11.27;3.25;;;11.60;99.90;;;;;;5074848;28;20464;-74
2022/11/03 05:18:41;;;;;;;11.98;2.88;;;11.70;99.90;;;;;;5074561;28;20431;-73
2022/11/03 05:21:09;;;;;;;16.25;3.00;;;11.60;99.90;;;;;;5074972;28;20392;-73
2022/11/03 05:24:01;;;;;;;15.05;2.50;;;11.60;99.90;;;;;;5059816;28;20025;-73
2022/11/03 05:26:31;;;;;;;20.00;3.40;;;11.60;99.90;;;;;;5074238;28;20045;-74
2022/11/03 05:29:03;;;;;;;8.23;2.63;;;11.60;99.90;;;;;;5074508;28;20032;-73
2022/11/03 05:31:30;;;;;;;9.43;3.25;;;11.60;99.90;;;;;;5073757;28;20056;-74
2022/11/03 05:33:58;;;;;;;15.82;3.60;;;11.70;99.90;;;;;;5074390;28;20381;-74
2022/11/03 05:36:27;;;;;;;13.45;2.63;;;11.70;99.90;;;;;;5073437;28;20029;-74
2022/11/03 05:38:57;;;;;;;9.02;2.42;;;11.70;99.90;;;;;;5074514;28;20028;-74
2022/11/03 05:41:29;;;;;;;11.77;2.50;;;11.60;99.90;;;;;;5074573;28;20020;-74
2022/11/03 05:44:00;;;;;;;9.23;2.90;;;11.70;99.90;;;;;;5073925;28;20486;-74
2022/11/03 05:46:29;;;;;;;11.00;2.85;;;11.70;99.90;;;;;;5074236;28;20024;-74
2022/11/03 05:48:56;;;;;;;10.40;2.88;;;11.70;99.90;;;;;;5074301;28;20028;-74
2022/11/03 05:51:26;;;;;;;14.27;2.92;;;12.70;99.90;;;;;;5073374;28;20843;-74
2022/11/03 05:53:55;;;;;;;8.27;2.60;;;11.70;99.90;;;;;;5074691;28;20105;-74
2022/11/03 05:56:23;;;;;;;9.02;2.85;;;11.60;99.90;;;;;;5074460;28;20028;-74
2022/11/03 05:58:52;;;;;;;18.30;3.13;;;11.70;99.90;;;;;;5073900;28;20024;-73
2022/11/03 06:01:37;;;;;;;12.85;2.42;;;11.70;99.90;;;;;;5062217;28;20480;-74
2022/11/03 06:04:18;;;;;;;15.68;3.13;;;11.70;99.90;;;;;;5074481;28;20030;-74
2022/11/03 06:06:52;;;;;;;13.02;2.88;;;11.60;99.90;;;;;;5087699;28;20029;-74
2022/11/03 06:09:21;;;;;;;12.63;3.08;;;11.70;99.90;;;;;;5091337;28;20059;-74
2022/11/03 06:11:49;;;;;;;11.25;3.03;;;11.60;99.90;;;;;;5087876;28;20031;-74
2022/11/03 06:14:23;;;;;;;16.27;3.35;;;11.60;99.90;;;;;;5091590;28;20028;-74
2022/11/03 06:17:04;;;;;;;16.52;3.20;;;11.60;99.90;;;;;;5088974;28;20062;-74
2022/11/03 06:19:48;;;;;;;9.02;2.55;;;11.60;99.90;;;;;;5090973;28;20020;-74
2022/11/03 06:22:30;;;;;;;13.07;3.22;;;11.60;99.90;;;;;;5074694;28;20032;-74
2022/11/03 06:25:00;;;;;;;11.43;2.75;;;11.60;99.90;;;;;;5056719;28;20033;-74
2022/11/03 06:27:32;;;;;;;10.98;3.45;;;12.60;99.90;;;;;;5055840;28;20051;-74
2022/11/03 06:30:09;;;;;;;12.90;3.00;;;11.60;99.90;;;;;;5053147;28;20043;-75
2022/11/03 06:32:35;;;;;;;15.82;3.30;;;11.60;99.90;;;;;;5059769;28;20024;-74
2022/11/03 06:35:00;;;;;;;7.35;2.47;;;11.60;99.90;;;;;;5054949;28;20032;-73
2022/11/03 06:37:33;;;;;;;10.48;2.75;;;11.60;99.90;;;;;;5056727;28;20139;-74
2022/11/03 06:40:23;;;;;;;11.23;2.63;;;11.60;99.90;;;;;;5052184;28;20448;-74
2022/11/03 06:42:52;;;;;;;11.57;3.08;;;11.60;99.90;;;;;;5049947;28;20040;-73
2022/11/03 06:45:21;;;;;;;10.88;2.88;;;11.60;99.90;;;;;;5054082;28;20041;-74
2022/11/03 06:47:47;;;;;;;9.93;2.50;;;11.60;99.90;;;;;;5054707;28;20119;-73
2022/11/03 06:50:29;;;;;;;12.77;3.08;;;11.70;99.90;;;;;;5061774;28;20506;-75
2022/11/03 06:52:57;;;;;;;12.85;3.25;;;11.70;99.90;;;;;;5055611;28;20025;-74
2022/11/03 06:55:33;;;;;;;9.23;2.60;;;11.80;99.90;;;;;;5057261;28;20021;-73
2022/11/03 06:58:16;;;;;;;9.70;2.85;;;11.80;99.90;;;;;;5054891;28;20086;-74
2022/11/03 07:00:45;;;;;;;13.45;3.05;;;11.80;99.90;;;;;;5059726;28;20465;-74
2022/11/03 07:03:25;;;;;;;10.32;2.60;;;11.80;99.90;;;;;;5075445;28;20507;-74
2022/11/03 07:06:01;;;;;;;8.68;2.42;;;11.90;99.90;;;;;;5075717;28;20392;-74
2022/11/03 07:08:30;;;;;;;12.20;3.90;;;11.80;99.90;;;;;;5088234;28;20028;-75
2022/11/03 07:11:03;;;;;;;12.73;2.47;;;11.90;99.90;;;;;;5091245;28;20042;-74
2022/11/03 07:13:33;;;;;;;15.55;2.88;;;11.90;99.90;;;;;;5086562;28;20100;-76
2022/11/03 07:15:59;;;;;;;7.65;2.53;;;11.90;99.90;;;;;;5082131;28;20081;-75
2022/11/03 07:18:34;;;;;;;14.82;3.83;;;11.90;99.90;;;;;;5089750;28;20025;-75
2022/11/03 07:21:23;;;;;;;11.10;2.83;;;11.90;99.90;;;;;;5083131;28;20024;-74
2022/11/03 07:23:49;;;;;;;13.25;3.08;;;11.90;99.90;;;;;;5058029;28;20098;-75
2022/11/03 07:26:14;;;;;;;7.90;2.75;;;11.90;99.90;;;;;;5075865;28;20484;-74
2022/11/03 07:28:40;;;;;;;13.13;2.90;;;11.90;99.90;;;;;;5072353;28;20074;-75
2022/11/03 07:31:14;;;;;;;16.60;3.45;;;11.90;99.90;;;;;;5070431;28;20028;-74
2022/11/03 07:33:40;;;;;;;12.00;3.10;;;11.90;99.90;;;;;;5072966;28;20107;-75
2022/11/03 07:36:07;;;;;;;22.92;3.72;;;11.90;99.90;;;;;;5072196;28;20056;-74
2022/11/03 07:38:33;;;;;;;10.77;3.35;;;11.90;99.90;;;;;;5072448;28;20073;-74
2022/11/03 07:40:59;;;;;;;12.57;3.88;;;11.90;99.90;;;;;;5072786;28;20119;-75
2022/11/03 07:43:30;;;;;;;10.98;2.85;;;11.90;99.90;;;;;;5071746;28;20031;-74
2022/11/03 07:45:59;;;;;;;12.25;3.13;;;11.90;99.90;;;;;;5072925;28;20025;-75
2022/11/03 07:48:32;;;;;;;12.45;2.90;;;11.90;99.90;;;;;;5072354;28;20044;-73
2022/11/03 07:51:16;;;;;;;14.73;3.60;;;12.00;99.90;;;;;;5072857;28;20533;-73
2022/11/03 07:53:46;;;;;;;10.48;3.08;;;12.50;99.90;;;;;;5072814;28;20024;-73
2022/11/03 07:56:25;;;;;;;13.05;3.33;;;12.00;99.90;;;;;;5074421;28;20017;-73
2022/11/03 07:59:03;;;;;;;14.07;2.72;;;12.10;99.90;;;;;;5072038;28;20485;-75
2022/11/03 08:01:33;;;;;;;9.07;2.55;;;12.10;99.90;;;;;;5072484;28;20020;-74
2022/11/03 08:04:08;;;;;;;10.85;2.88;;;12.20;99.90;;;;;;5073292;28;20085;-76
2022/11/03 08:06:34;;;;;;;15.70;3.55;;;12.20;99.90;;;;;;5072913;28;20088;-73
2022/11/03 08:09:00;;;;;;;14.32;3.58;;;12.20;99.90;;;;;;5072289;28;20056;-72
2022/11/03 08:11:25;;;;;;;12.50;2.95;;;12.20;99.90;;;;;;5071925;28;20036;-76
2022/11/03 08:13:54;;;;;;;11.15;3.50;;;12.30;99.90;;;;;;5073414;28;20039;-75
2022/11/03 08:16:20;;;;;;;12.80;3.15;;;12.40;99.90;;;;;;5072858;28;20074;-75
2022/11/03 08:18:46;;;;;;;12.88;2.83;;;12.30;99.90;;;;;;5072336;28;20020;-75
2022/11/03 08:21:12;;;;;;;8.75;3.00;;;12.40;99.90;;;;;;5073220;28;20030;-75
2022/11/03 08:23:38;;;;;;;12.45;3.30;;;12.40;99.90;;;;;;5074962;28;20530;-75
2022/11/03 08:26:04;;;;;;;16.13;3.08;;;12.50;99.90;;;;;;5089016;28;20047;-75
2022/11/03 08:28:31;;;;;;;17.23;3.28;;;12.60;99.90;;;;;;5074911;28;20025;-75
2022/11/03 08:31:00;;;;;;;7.88;2.38;;;12.60;99.90;;;;;;5088963;28;20063;-74
2022/11/03 08:33:27;;;;;;;12.40;3.35;;;12.60;99.90;;;;;;5084179;28;20090;-74
2022/11/03 08:35:53;;;;;;;10.40;2.95;;;12.70;99.90;;;;;;5061703;28;20391;-74
2022/11/03 08:38:18;;;;;;;12.27;3.85;;;12.70;99.90;;;;;;5072964;28;20031;-73
2022/11/03 08:40:44;;;;;;;16.55;3.58;;;12.70;99.90;;;;;;5078844;28;20056;-74
2022/11/03 08:43:10;;;;;;;11.73;3.05;;;12.80;99.90;;;;;;5075695;28;20456;-74
2022/11/03 08:45:35;;;;;;;20.08;3.58;;;12.80;99.90;;;;;;5067287;28;20487;-73
2022/11/03 08:48:01;;;;;;;8.25;2.70;;;12.80;99.90;;;;;;5056944;28;20021;-75
2022/11/03 08:50:27;;;;;;;10.77;2.92;;;12.80;99.90;;;;;;5071556;28;20036;-75
2022/11/03 08:52:53;;;;;;;15.35;3.15;;;12.80;99.90;;;;;;5076054;28;20024;-75
2022/11/03 08:55:18;;;;;;;8.30;2.95;;;12.80;99.90;;;;;;5075237;28;20043;-75
2022/11/03 08:57:44;;;;;;;11.90;3.10;;;12.90;99.90;;;;;;5076053;28;20446;-75
2022/11/03 09:00:10;;;;;;;11.52;3.58;;;12.90;99.90;;;;;;5076251;28;20032;-75
2022/11/03 09:02:36;;;;;;;10.90;2.85;;;13.00;99.90;;;;;;5074726;28;20048;-75
2022/11/03 09:05:02;;;;;;;11.90;2.92;;;13.00;99.90;;;;;;5073842;28;20431;-75
2022/11/03 09:07:28;;;;;;;10.93;3.03;;;13.00;99.90;;;;;;5073782;28;20483;-75
2022/11/03 09:09:54;;;;;;;16.45;2.85;;;13.10;99.90;;;;;;5074591;28;20029;-76
2022/11/03 09:12:20;;;;;;;16.33;3.40;;;13.10;99.90;;;;;;5071989;28;20033;-75
2022/11/03 09:14:46;;;;;;;7.05;2.90;;;13.00;99.90;;;;;;5069604;28;20020;-75
2022/11/03 09:17:11;;;;;;;10.18;2.63;;;13.20;99.90;;;;;;5074298;28;20024;-74
2022/11/03 09:19:37;;;;;;;12.35;2.97;;;13.10;99.90;;;;;;5073943;28;20028;-74
2022/11/03 09:22:02;;;;;;;8.88;2.90;;;13.30;99.90;;;;;;5074066;28;20465;-74
2022/11/03 09:24:29;;;;;;;13.30;2.95;;;13.20;99.90;;;;;;5073615;28;20021;-74
2022/11/03 09:26:55;;;;;;;15.98;3.15;;;13.30;99.90;;;;;;5070336;28;20101;-74
2022/11/03 09:29:20;;;;;;;8.80;3.55;;;13.40;99.90;;;;;;5073451;28;20107;-74
2022/11/03 09:31:46;;;;;;;14.20;3.40;;;13.40;99.90;;;;;;5074947;28;20029;-74
2022/11/03 09:34:12;;;;;;;11.88;3.67;;;13.40;99.90;;;;;;5074902;28;20029;-76
2022/11/03 09:36:38;;;;;;;9.15;3.20;;;13.40;99.90;;;;;;5073166;28;20032;-75
2022/11/03 09:39:03;;;;;;;10.98;2.97;;;13.40;99.90;;;;;;5070925;28;20085;-74
2022/11/03 09:41:30;;;;;;;8.10;2.70;;;14.20;99.90;;;;;;5073633;28;20368;-75
2022/11/03 09:43:57;;;;;;;9.18;2.60;;;13.50;99.90;;;;;;5072334;28;20020;-74
2022/11/03 09:46:24;;;;;;;8.65;2.53;;;13.60;99.90;;;;;;5070645;28;20029;-73
2022/11/03 09:48:53;;;;;;;11.05;3.13;;;13.60;99.90;;;;;;5074744;28;20052;-74
2022/11/03 09:51:20;;;;;;;8.60;2.67;;;14.10;99.90;;;;;;5073807;28;20028;-75
2022/11/03 09:53:47;;;;;;;9.27;2.38;;;13.60;99.90;;;;;;5073314;28;20029;-75
2022/11/03 09:56:13;;;;;;;7.75;3.00;;;13.60;99.90;;;;;;5073644;28;20039;-75
2022/11/03 09:58:39;;;;;;;6.93;2.85;;;13.70;99.90;;;;;;5072166;28;20107;-74
2022/11/03 10:01:05;;;;;;;11.15;3.78;;;13.70;99.90;;;;;;5073783;28;20040;-74
2022/11/03 10:03:31;;;;;;;9.15;2.35;;;13.70;99.90;;;;;;5073368;28;20051;-74
2022/11/03 10:05:57;;;;;;;11.73;2.97;;;13.70;99.90;;;;;;5071597;28;20028;-74
2022/11/03 10:08:26;;;;;;;11.18;2.80;;;13.80;99.90;;;;;;5071359;28;20032;-74
2022/11/03 10:10:53;;;;;;;8.50;2.83;;;13.80;99.90;;;;;;5053681;28;20044;-74
2022/11/03 10:13:46;;;;;;;9.45;2.85;;;13.80;99.90;;;;;;5071333;28;20013;-75
2022/11/03 10:16:17;;;;;;;10.85;3.00;;;13.80;99.90;;;;;;5073346;28;20039;-75
2022/11/03 10:18:42;;;;;;;7.63;2.97;;;13.80;99.90;;;;;;5072102;28;20025;-75
2022/11/03 10:21:30;;;;;;;10.38;3.13;;;13.90;99.90;;;;;;5073187;28;20028;-75
2022/11/03 10:23:55;;;;;;;6.22;2.78;;;13.90;99.90;;;;;;5073462;28;20048;-75
2022/11/03 10:26:22;;;;;;;9.68;2.70;;;14.00;99.90;;;;;;5072478;28;20041;-74
2022/11/03 10:28:59;;;;;;;9.93;3.20;;;14.00;99.90;;;;;;5085837;28;20028;-76
2022/11/03 10:31:35;;;;;;;9.93;2.40;;;14.10;99.90;;;;;;5073485;28;20029;-74
2022/11/03 10:34:01;;;;;;;11.18;2.60;;;14.10;99.90;;;;;;5069551;28;20025;-74
2022/11/03 10:36:32;;;;;;;14.90;3.47;;;14.10;99.90;;;;;;5071513;28;20025;-76
2022/11/03 10:39:00;;;;;;;9.32;2.78;;;14.10;99.90;;;;;;5067852;28;20381;-77
2022/11/03 10:41:30;;;;;;;10.73;3.33;;;14.10;99.90;;;;;;5071114;28;20036;-76
2022/11/03 10:44:04;;;;;;;12.55;3.17;;;14.20;99.90;;;;;;5073140;28;20530;-76
2022/11/03 10:46:31;;;;;;;11.73;3.40;;;14.20;99.90;;;;;;5072095;28;20527;-74
2022/11/03 10:49:14;;;;;;;9.32;2.63;;;14.20;99.90;;;;;;5073051;28;20025;-73
2022/11/03 10:51:41;;;;;;;11.70;2.63;;;14.20;99.90;;;;;;5072879;28;20067;-74
2022/11/03 10:54:25;;;;;;;6.10;2.50;;;14.30;99.90;;;;;;5073617;28;20021;-74
2022/11/03 10:56:51;;;;;;;6.63;2.05;;;14.30;99.90;;;;;;5072198;28;20496;-75
2022/11/03 10:59:20;;;;;;;8.32;2.53;;;14.40;99.90;;;;;;5078095;28;20082;-74
2022/11/03 11:01:46;;;;;;;12.20;2.40;;;14.50;99.90;;;;;;5076717;28;20017;-74
2022/11/03 11:04:15;;;;;;;8.65;3.33;;;14.40;99.90;;;;;;5080760;28;20113;-75
2022/11/03 11:06:41;;;;;;;8.88;2.97;;;14.50;99.90;;;;;;5072486;28;20116;-74
2022/11/03 11:09:11;;;;;;;11.00;2.40;;;14.50;99.90;;;;;;5080793;28;20102;-74
2022/11/03 11:11:36;;;;;;;6.90;2.33;;;14.60;99.90;;;;;;5077070;28;20415;-74
2022/11/03 11:14:40;;;;;;;8.35;2.03;;;14.60;99.90;;;;;;5079609;28;20028;-75
2022/11/03 11:17:37;;;;;;;7.15;2.50;;;14.70;99.90;;;;;;5072534;28;20024;-75
2022/11/03 11:20:36;;;;;;;6.75;2.30;;;14.70;99.90;;;;;;5068198;28;20417;-74
2022/11/03 11:23:26;;;;;;;7.28;2.40;;;14.70;99.90;;;;;;5040724;28;20048;-74
2022/11/03 11:26:14;;;;;;;10.38;2.20;;;14.70;99.90;;;;;;5079390;28;20055;-73
2022/11/03 11:29:08;;;;;;;6.38;2.28;;;14.80;99.90;;;;;;5075531;28;20037;-74
2022/11/03 11:31:35;;;;;;;9.98;2.13;;;14.80;99.90;;;;;;5070946;28;20085;-73
2022/11/03 11:34:15;;;;;;;8.00;2.78;;;14.80;99.90;;;;;;5080698;28;20027;-73
2022/11/03 11:36:46;;;;;;;;;;;14.70;99.90;;;;;;5069903;28;20536;-75
2022/11/03 11:39:30;;;;;;;6.30;2.25;;;14.70;99.90;;;;;;5066320;28;19920;-76
2022/11/03 11:42:16;;;;;;;6.28;2.42;;;14.80;99.90;;;;;;5072754;28;20050;-73
2022/11/03 11:44:41;;;;;;;7.97;2.28;;;14.90;99.90;;;;;;5072864;28;20125;-73
2022/11/03 11:47:33;;;;;;;16.00;2.40;;;15.00;99.90;;;;;;5072773;28;20520;-74
2022/11/03 11:50:04;;;;;;;6.85;2.67;;;15.00;99.90;;;;;;5074193;28;20548;-74
2022/11/03 11:52:31;;;;;;;10.57;2.40;;;15.10;99.90;;;;;;5072854;28;20017;-75
2022/11/03 11:54:57;;;;;;;7.40;2.25;;;15.10;99.90;;;;;;5073869;28;20035;-74
2022/11/03 11:57:23;;;;;;;7.47;2.13;;;15.10;99.90;;;;;;5071758;28;20028;-74
2022/11/03 11:59:50;;;;;;;11.48;2.17;;;15.20;99.90;;;;;;5072347;28;20021;-75
2022/11/03 12:02:22;;;;;;;5.60;1.85;;;15.20;99.90;;;;;;5072636;28;20040;-74
2022/11/03 12:04:51;;;;;;;6.07;2.42;;;15.20;99.90;;;;;;5071638;28;20032;-74
2022/11/03 12:07:34;;;;;;;3.33;1.90;;;15.30;99.90;;;;;;5072303;28;20028;-76
2022/11/03 12:10:16;;;;;;;4.93;1.80;;;15.30;99.90;;;;;;5072297;28;20090;-74
2022/11/03 12:12:42;;;;;;;7.68;2.80;;;15.30;99.90;;;;;;5072577;28;20086;-74
2022/11/03 12:15:45;;;;;;;8.00;1.77;;;15.30;99.90;;;;;;5073185;28;20024;-74
2022/11/03 12:18:40;;;;;;;9.57;2.28;;;15.30;99.90;;;;;;5085987;28;20013;-73
2022/11/03 12:21:12;;;;;;;5.47;1.98;;;15.30;99.90;;;;;;5074786;28;20025;-75
2022/11/03 12:23:43;;;;;;;8.43;2.00;;;15.20;99.90;;;;;;5076523;28;20158;-74
2022/11/03 12:26:27;;;;;;;5.93;1.80;;;15.30;99.90;;;;;;5075851;28;20040;-75
2022/11/03 12:28:53;;;;;;;4.28;1.58;;;15.30;99.90;;;;;;5071866;28;20029;-75
2022/11/03 12:31:18;;;;;;;5.20;1.77;;;15.30;99.90;;;;;;5058429;28;20063;-75
2022/11/03 12:33:44;;;;;;;6.40;1.75;;;15.30;99.90;;;;;;5061332;28;20139;-75
2022/11/03 12:36:11;;;;;;;8.25;2.00;;;15.40;99.90;;;;;;5060376;28;20029;-75
2022/11/03 12:38:36;;;;;;;5.68;1.70;;;15.70;99.90;;;;;;5055715;28;20027;-75
2022/11/03 12:41:20;;;;;;;7.88;2.08;;;15.80;99.90;;;;;;5063920;28;20527;-75
2022/11/03 12:43:47;;;;;;;5.55;1.92;;;16.10;99.90;;;;;;5075915;28;20377;-75
2022/11/03 12:46:17;;;;;;;3.38;1.60;;;16.30;99.90;;;;;;5075932;28;20031;-75
2022/11/03 12:48:44;;;;;;;5.75;2.10;;;16.40;99.90;;;;;;5076682;28;20025;-76
2022/11/03 12:51:14;;;;;;;5.85;2.40;;;16.50;99.90;;;;;;5076812;28;20032;-76
2022/11/03 12:53:40;;;;;;;3.75;1.50;;;16.60;99.90;;;;;;5075755;28;20016;-76
2022/11/03 12:56:07;;;;;;;8.40;1.95;;;16.70;99.90;;;;;;5075627;28;20031;-76
2022/11/03 12:58:32;;;;;;;3.72;1.50;;;16.80;99.90;;;;;;5075319;28;20376;-76
2022/11/03 13:01:01;;;;;;;5.22;1.63;;;16.80;99.90;;;;;;5074974;28;20020;-75
2022/11/03 13:03:27;;;;;;;5.05;1.92;;;16.70;99.90;;;;;;5076218;28;20021;-75
2022/11/03 13:05:52;;;;;;;4.07;1.60;;;16.70;99.90;;;;;;5076782;28;20131;-75
2022/11/03 13:08:18;;;;;;;4.70;1.70;;;16.60;99.90;;;;;;5076875;28;20031;-75
2022/11/03 13:10:43;;;;;;;3.53;1.75;;;16.60;99.90;;;;;;5075068;28;20116;-74
2022/11/03 13:13:09;;;;;;;6.20;1.65;;;16.60;99.90;;;;;;5075349;28;20021;-74
2022/11/03 13:15:35;;;;;;;7.78;1.75;;;16.50;99.90;;;;;;5074615;28;20028;-76